createdAt,value
2023-03-10T00:01:41.834Z,0.70
2023-03-10T00:04:09.279Z,0.40
2023-03-10T00:06:37.677Z,0.50
2023-03-10T00:09:05.118Z,0.80
2023-03-10T00:11:32.524Z,0.80
2023-03-10T00:13:59.927Z,0.77
2023-03-10T00:16:29.402Z,0.60
2023-03-10T00:18:56.896Z,0.40
2023-03-10T00:21:25.719Z,0.60
2023-03-10T00:23:53.530Z,0.70
2023-03-10T00:26:22.039Z,0.33
2023-03-10T00:28:49.800Z,0.70
2023-03-10T00:31:19.457Z,0.70
2023-03-10T00:33:47.002Z,0.57
2023-03-10T00:36:16.529Z,0.60
2023-03-10T00:38:44.582Z,0.70
2023-03-10T00:41:13.405Z,0.80
2023-03-10T00:43:41.124Z,0.90
2023-03-10T00:46:08.825Z,0.80
2023-03-10T00:48:36.688Z,0.43
2023-03-10T00:51:04.648Z,0.70
2023-03-10T00:53:32.850Z,0.43
2023-03-10T00:56:03.184Z,0.50
2023-03-10T00:58:30.925Z,0.40
2023-03-10T01:00:58.848Z,0.50
2023-03-10T01:03:26.809Z,0.30
2023-03-10T01:05:54.248Z,0.50
2023-03-10T01:08:21.889Z,0.57
2023-03-10T01:10:49.578Z,0.67
2023-03-10T01:13:18.607Z,0.50
2023-03-10T01:15:47.963Z,0.60
2023-03-10T01:18:15.975Z,0.50
2023-03-10T01:20:43.683Z,0.70
2023-03-10T01:23:16.855Z,0.60
2023-03-10T01:25:44.651Z,0.50
2023-03-10T01:28:12.071Z,0.60
2023-03-10T01:30:39.852Z,0.80
2023-03-10T01:33:08.288Z,0.80
2023-03-10T01:35:36.049Z,0.70
2023-03-10T01:41:00.245Z,0.60
2023-03-10T01:43:28.806Z,0.57
2023-03-10T01:46:02.366Z,0.57
2023-03-10T01:48:31.129Z,0.40
2023-03-10T01:50:58.961Z,0.50
2023-03-10T01:53:26.845Z,0.50
2023-03-10T01:55:57.280Z,0.53
2023-03-10T01:58:26.964Z,0.40
2023-03-10T02:00:55.046Z,0.50
2023-03-10T02:03:23.880Z,0.53
2023-03-10T02:05:54.528Z,0.40
2023-03-10T02:08:23.044Z,0.40
2023-03-10T02:10:51.491Z,0.50
2023-03-10T02:13:18.973Z,0.50
2023-03-10T02:15:46.921Z,0.40
2023-03-10T02:18:15.403Z,0.30
2023-03-10T02:20:42.803Z,0.50
2023-03-10T02:23:11.526Z,0.60
2023-03-10T02:25:38.857Z,0.30
2023-03-10T02:28:06.649Z,0.50
2023-03-10T02:30:39.049Z,0.30
2023-03-10T02:33:32.853Z,0.37
2023-03-10T02:36:04.390Z,0.60
2023-03-10T02:38:31.729Z,0.40
2023-03-10T02:40:58.963Z,0.70
2023-03-10T02:43:28.489Z,0.50
2023-03-10T02:45:58.179Z,0.70
2023-03-10T02:48:28.418Z,0.50
2023-03-10T02:50:56.847Z,0.33
2023-03-10T02:53:26.287Z,0.30
2023-03-10T02:55:54.451Z,0.53
2023-03-10T02:58:22.606Z,0.50
2023-03-10T03:00:51.227Z,0.70
2023-03-10T03:03:19.497Z,0.50
2023-03-10T03:05:47.488Z,0.70
2023-03-10T03:08:15.448Z,0.70
2023-03-10T03:10:43.172Z,0.67
2023-03-10T03:13:10.604Z,0.77
2023-03-10T03:15:38.052Z,0.50
2023-03-10T03:18:05.536Z,0.70
2023-03-10T03:20:33.388Z,0.70
2023-03-10T03:23:00.770Z,0.70
2023-03-10T03:25:29.082Z,0.50
2023-03-10T03:27:56.814Z,0.50
2023-03-10T03:30:25.549Z,0.50
2023-03-10T03:32:53.746Z,0.90
2023-03-10T03:35:24.720Z,0.57
2023-03-10T03:37:56.003Z,1.00
2023-03-10T03:40:24.681Z,0.60
2023-03-10T03:42:52.688Z,0.70
2023-03-10T03:45:21.722Z,0.57
2023-03-10T03:47:49.443Z,0.70
2023-03-10T03:50:17.721Z,0.70
2023-03-10T03:52:45.332Z,0.80
2023-03-10T03:55:13.860Z,0.63
2023-03-10T03:57:41.723Z,0.70
2023-03-10T04:00:10.072Z,0.70
2023-03-10T04:02:37.660Z,0.60
2023-03-10T04:05:05.402Z,0.60
2023-03-10T04:07:32.734Z,0.50
2023-03-10T04:10:00.139Z,0.40
2023-03-10T04:12:29.684Z,0.60
2023-03-10T04:14:57.082Z,0.80
2023-03-10T04:17:24.524Z,0.80
2023-03-10T04:20:06.258Z,0.70
2023-03-10T04:22:35.120Z,0.67
2023-03-10T04:25:02.854Z,0.47
2023-03-10T04:27:30.270Z,0.47
2023-03-10T04:29:57.722Z,0.50
2023-03-10T04:32:25.245Z,0.50
2023-03-10T04:34:53.091Z,0.60
2023-03-10T04:37:21.948Z,0.50
2023-03-10T04:39:49.502Z,0.40
2023-03-10T04:42:17.014Z,0.57
2023-03-10T04:44:44.475Z,0.50
2023-03-10T04:47:11.774Z,0.60
2023-03-10T04:49:39.297Z,0.40
2023-03-10T04:52:07.111Z,0.60
2023-03-10T04:54:34.405Z,0.67
2023-03-10T04:57:01.975Z,0.50
2023-03-10T04:59:29.243Z,0.60
2023-03-10T05:01:56.564Z,0.60
2023-03-10T05:04:24.317Z,0.60
2023-03-10T05:06:52.464Z,0.70
2023-03-10T05:09:20.147Z,0.60
2023-03-10T05:11:47.577Z,0.50
2023-03-10T05:14:15.197Z,0.40
2023-03-10T05:16:42.483Z,0.60
2023-03-10T05:19:10.043Z,0.50
2023-03-10T05:21:37.390Z,0.60
2023-03-10T05:24:04.843Z,0.50
2023-03-10T05:26:34.685Z,0.50
2023-03-10T05:29:02.279Z,0.50
2023-03-10T05:31:29.731Z,0.50
2023-03-10T05:33:57.484Z,0.60
2023-03-10T05:36:25.023Z,0.50
2023-03-10T05:38:52.451Z,0.47
2023-03-10T05:41:20.108Z,0.60
2023-03-10T05:43:47.480Z,0.60
2023-03-10T05:46:14.972Z,0.60
2023-03-10T05:48:42.603Z,0.70
2023-03-10T05:51:11.707Z,0.67
2023-03-10T05:53:39.417Z,0.73
2023-03-10T05:56:08.938Z,0.70
2023-03-10T05:58:36.729Z,0.70
2023-03-10T06:01:04.600Z,0.77
2023-03-10T06:03:32.300Z,0.67
2023-03-10T06:06:00.452Z,0.60
2023-03-10T06:08:28.280Z,0.70
2023-03-10T06:10:56.120Z,0.60
2023-03-10T06:13:23.641Z,0.90
2023-03-10T06:15:51.886Z,0.70
2023-03-10T06:18:19.721Z,1.10
2023-03-10T06:20:48.313Z,0.90
2023-03-10T06:23:16.106Z,1.00
2023-03-10T06:25:43.603Z,1.03
2023-03-10T06:28:11.901Z,1.03
2023-03-10T06:30:39.240Z,1.07
2023-03-10T06:33:06.705Z,0.77
2023-03-10T06:35:34.066Z,0.60
2023-03-10T06:38:01.554Z,1.00
2023-03-10T06:40:28.924Z,0.77
2023-03-10T06:42:56.341Z,0.80
2023-03-10T06:45:23.714Z,0.70
2023-03-10T06:47:51.044Z,1.20
2023-03-10T06:50:18.356Z,1.00
2023-03-10T06:52:47.267Z,0.70
2023-03-10T06:55:16.095Z,0.80
2023-03-10T06:57:43.396Z,1.00
2023-03-10T07:00:15.807Z,1.07
2023-03-10T07:02:43.884Z,0.70
2023-03-10T07:05:14.625Z,0.73
2023-03-10T07:07:42.488Z,0.80
2023-03-10T07:10:10.417Z,0.90
2023-03-10T07:12:37.784Z,1.03
2023-03-10T07:15:05.363Z,0.80
2023-03-10T07:17:32.723Z,0.70
2023-03-10T07:20:00.189Z,1.30
2023-03-10T07:22:27.465Z,2.30
2023-03-10T07:24:55.634Z,2.90
2023-03-10T07:27:23.602Z,2.40
2023-03-10T07:29:50.905Z,1.77
2023-03-10T07:32:18.285Z,1.50
2023-03-10T07:34:45.651Z,1.23
2023-03-10T07:37:16.241Z,1.20
2023-03-10T07:39:43.522Z,0.90
2023-03-10T07:42:11.033Z,0.93
2023-03-10T07:44:38.450Z,1.20
2023-03-10T07:47:05.883Z,1.20
2023-03-10T07:49:33.282Z,5.10
2023-03-10T07:52:00.753Z,2.63
2023-03-10T07:54:28.451Z,1.77
2023-03-10T07:56:55.788Z,1.80
2023-03-10T07:59:23.168Z,1.70
2023-03-10T08:01:50.764Z,1.87
2023-03-10T08:04:18.550Z,1.70
2023-03-10T08:06:46.401Z,1.80
2023-03-10T08:09:16.793Z,1.63
2023-03-10T08:11:44.122Z,1.70
2023-03-10T08:14:11.400Z,1.43
2023-03-10T08:16:39.788Z,1.53
2023-03-10T08:19:07.961Z,1.80
2023-03-10T08:21:35.330Z,1.57
2023-03-10T08:24:02.872Z,1.07
2023-03-10T08:26:30.286Z,1.23
2023-03-10T08:28:57.639Z,1.40
2023-03-10T08:31:25.288Z,1.67
2023-03-10T08:33:56.085Z,1.50
2023-03-10T08:36:24.755Z,1.07
2023-03-10T08:38:53.081Z,0.67
2023-03-10T08:41:22.805Z,0.90
2023-03-10T08:43:50.852Z,1.50
2023-03-10T08:46:20.457Z,1.27
2023-03-10T08:48:48.431Z,1.70
2023-03-10T08:51:16.722Z,1.57
2023-03-10T08:53:46.963Z,2.30
2023-03-10T08:56:14.883Z,1.80
2023-03-10T08:58:42.533Z,2.47
2023-03-10T09:01:09.961Z,1.77
2023-03-10T09:03:41.283Z,1.30
2023-03-10T09:06:09.359Z,1.20
2023-03-10T09:08:36.960Z,1.30
2023-03-10T09:11:04.525Z,1.33
2023-03-10T09:13:32.085Z,1.30
2023-03-10T09:15:59.527Z,1.00
2023-03-10T09:18:27.204Z,1.00
2023-03-10T09:20:54.569Z,1.17
2023-03-10T09:23:22.235Z,1.13
2023-03-10T09:25:49.751Z,1.00
2023-03-10T09:28:18.733Z,1.10
2023-03-10T09:30:46.541Z,1.10
2023-03-10T09:33:20.252Z,1.10
2023-03-10T09:36:05.105Z,0.90
2023-03-10T09:38:33.799Z,1.20
2023-03-10T09:41:20.271Z,1.23
2023-03-10T09:43:55.053Z,1.10
2023-03-10T09:46:27.807Z,2.10
2023-03-10T09:48:58.062Z,1.40
2023-03-10T09:51:26.728Z,0.97
2023-03-10T09:54:12.230Z,1.30
2023-03-10T09:56:39.604Z,1.10
2023-03-10T09:59:08.338Z,0.93
2023-03-10T10:01:35.968Z,1.10
2023-03-10T10:04:03.561Z,1.10
2023-03-10T10:06:34.226Z,1.10
2023-03-10T10:09:07.490Z,1.07
2023-03-10T10:11:37.847Z,1.13
2023-03-10T10:14:15.847Z,1.00
2023-03-10T10:16:46.290Z,1.50
2023-03-10T10:19:24.372Z,0.90
2023-03-10T10:21:51.652Z,1.10
2023-03-10T10:24:19.482Z,0.97
2023-03-10T10:26:47.000Z,1.40
2023-03-10T10:29:24.524Z,1.13
2023-03-10T10:32:11.655Z,1.17
2023-03-10T10:34:40.184Z,1.57
2023-03-10T10:37:26.026Z,1.33
2023-03-10T10:39:54.587Z,1.70
2023-03-10T10:42:24.959Z,1.80
2023-03-10T10:44:53.886Z,1.90
2023-03-10T10:47:32.171Z,1.70
2023-03-10T10:50:18.805Z,1.60
2023-03-10T10:52:49.080Z,1.20
2023-03-10T10:55:30.311Z,1.17
2023-03-10T10:58:01.436Z,1.50
2023-03-10T11:00:33.726Z,0.97
2023-03-10T11:03:02.365Z,1.20
2023-03-10T11:05:36.235Z,1.10
2023-03-10T11:08:19.335Z,1.10
2023-03-10T11:10:51.207Z,0.90
2023-03-10T11:13:24.015Z,0.80
2023-03-10T11:15:57.565Z,0.87
2023-03-10T11:18:28.989Z,0.90
2023-03-10T11:20:56.369Z,0.93
2023-03-10T11:23:40.412Z,0.80
2023-03-10T11:26:26.497Z,0.83
2023-03-10T11:28:56.574Z,0.70
2023-03-10T11:31:31.787Z,0.80
2023-03-10T11:34:05.048Z,0.80
2023-03-10T11:36:56.253Z,0.70
2023-03-10T11:39:43.963Z,0.70
2023-03-10T11:42:11.378Z,0.40
2023-03-10T11:44:40.530Z,0.70
2023-03-10T11:47:14.916Z,0.60
2023-03-10T11:49:45.994Z,0.57
2023-03-10T11:52:20.490Z,0.70
2023-03-10T11:55:08.360Z,0.60
2023-03-10T11:57:40.964Z,0.57
2023-03-10T12:00:10.247Z,0.80
2023-03-10T12:02:41.532Z,0.80
2023-03-10T12:05:11.699Z,0.90
2023-03-10T12:07:41.041Z,3.00
2023-03-10T12:10:14.598Z,1.27
2023-03-10T12:12:43.167Z,1.20
2023-03-10T12:15:32.768Z,0.90
2023-03-10T12:18:00.205Z,0.90
2023-03-10T12:20:29.848Z,0.97
2023-03-10T12:22:58.563Z,0.77
2023-03-10T12:25:33.343Z,0.53
2023-03-10T12:28:18.872Z,0.40
2023-03-10T12:30:46.556Z,0.30
2023-03-10T12:33:38.016Z,0.20
2023-03-10T12:36:09.629Z,0.30
2023-03-10T12:38:40.911Z,0.20
2023-03-10T12:41:08.801Z,0.20
2023-03-10T12:43:39.138Z,0.20
2023-03-10T12:46:08.891Z,0.17
2023-03-10T12:48:37.142Z,0.20
2023-03-10T12:51:09.531Z,0.20
2023-03-10T12:53:55.310Z,0.10
2023-03-10T12:56:33.416Z,0.23
2023-03-10T12:59:09.796Z,0.10
2023-03-10T13:01:49.573Z,0.20
2023-03-10T13:04:22.083Z,0.10
2023-03-10T13:06:50.248Z,0.20
2023-03-10T13:09:22.733Z,0.20
2023-03-10T13:11:53.188Z,0.13
2023-03-10T13:14:21.941Z,0.20
2023-03-10T13:16:55.585Z,0.20
2023-03-10T13:19:24.170Z,0.17
2023-03-10T13:21:52.223Z,0.10
2023-03-10T13:24:29.896Z,0.20
2023-03-10T13:27:15.714Z,0.23
2023-03-10T13:29:56.144Z,0.20
2023-03-10T13:32:23.730Z,0.10
2023-03-10T13:34:51.250Z,0.10
2023-03-10T13:37:18.857Z,0.10
2023-03-10T13:39:46.231Z,0.20
2023-03-10T13:42:41.011Z,0.20
2023-03-10T13:45:18.159Z,0.10
2023-03-10T13:47:45.695Z,0.30
2023-03-10T13:50:15.156Z,0.10
2023-03-10T13:52:53.481Z,0.10
2023-03-10T13:55:21.016Z,0.10
2023-03-10T13:57:49.292Z,0.10
2023-03-10T14:00:18.303Z,0.10
2023-03-10T14:02:47.669Z,0.13
2023-03-10T14:05:33.607Z,0.20
2023-03-10T14:08:01.278Z,0.20
2023-03-10T14:10:28.632Z,0.13
2023-03-10T14:12:56.149Z,0.20
2023-03-10T14:15:38.260Z,0.10
2023-03-10T14:18:08.652Z,0.10
2023-03-10T14:20:40.451Z,0.10
2023-03-10T14:23:19.884Z,0.10
2023-03-10T14:25:51.877Z,0.20
2023-03-10T14:28:26.801Z,0.00
2023-03-10T14:30:54.329Z,0.10
2023-03-10T14:33:22.217Z,0.10
2023-03-10T14:35:50.353Z,0.10
2023-03-10T14:38:18.339Z,0.23
2023-03-10T14:40:48.234Z,0.10
2023-03-10T14:43:17.525Z,0.10
2023-03-10T14:45:45.499Z,0.10
2023-03-10T14:48:20.814Z,0.20
2023-03-10T14:50:48.325Z,0.20
2023-03-10T14:53:17.689Z,0.20
2023-03-10T14:55:47.949Z,0.10
2023-03-10T14:58:17.578Z,0.17
2023-03-10T15:00:45.195Z,0.10
2023-03-10T15:03:13.345Z,0.17
2023-03-10T15:05:48.279Z,0.13
2023-03-10T15:08:16.736Z,0.10
2023-03-10T15:10:48.334Z,0.23
2023-03-10T15:13:16.595Z,0.20
2023-03-10T15:15:45.259Z,0.23
2023-03-10T15:18:23.120Z,0.10
2023-03-10T15:20:51.062Z,0.50
2023-03-10T15:23:20.174Z,0.33
2023-03-10T15:25:47.873Z,0.40
2023-03-10T15:28:15.231Z,0.40
2023-03-10T15:30:42.969Z,0.20
2023-03-10T15:33:11.006Z,0.40
2023-03-10T15:35:38.850Z,0.40
2023-03-10T15:38:06.445Z,0.47
2023-03-10T15:40:34.411Z,0.30
2023-03-10T15:43:01.893Z,0.50
2023-03-10T15:45:31.138Z,0.40
2023-03-10T15:47:59.151Z,0.40
2023-03-10T15:50:26.535Z,0.50
2023-03-10T15:52:55.172Z,0.60
2023-03-10T15:55:23.086Z,0.40
2023-03-10T15:57:50.724Z,0.53
2023-03-10T16:00:22.608Z,0.67
2023-03-10T16:02:50.784Z,0.30
2023-03-10T16:05:19.218Z,0.50
2023-03-10T16:07:46.734Z,0.50
2023-03-10T16:10:14.971Z,0.33
2023-03-10T16:12:42.368Z,0.60
2023-03-10T16:15:10.325Z,0.57
2023-03-10T16:17:37.655Z,0.70
2023-03-10T16:20:07.364Z,0.83
2023-03-10T16:22:37.369Z,0.70
2023-03-10T16:25:04.805Z,0.50
2023-03-10T16:27:32.165Z,0.80
2023-03-10T16:30:01.288Z,0.80
2023-03-10T16:32:28.770Z,0.50
2023-03-10T16:34:56.280Z,0.80
2023-03-10T16:37:28.291Z,0.60
2023-03-10T16:39:56.323Z,0.90
2023-03-10T16:42:24.386Z,1.83
2023-03-10T16:44:51.799Z,0.67
2023-03-10T16:47:19.242Z,1.03
2023-03-10T16:49:46.675Z,0.80
2023-03-10T16:52:13.963Z,0.70
2023-03-10T16:54:41.397Z,1.03
2023-03-10T16:57:08.894Z,1.13
2023-03-10T16:59:36.307Z,0.50
2023-03-10T17:02:05.232Z,0.80
2023-03-10T17:04:33.244Z,1.13
2023-03-10T17:07:00.620Z,1.00
2023-03-10T17:09:29.847Z,0.97
2023-03-10T17:11:57.323Z,0.83
2023-03-10T17:14:25.091Z,0.80
2023-03-10T17:16:58.978Z,0.90
2023-03-10T17:19:30.329Z,1.73
2023-03-10T17:21:58.805Z,0.73
2023-03-10T17:24:26.894Z,0.50
2023-03-10T17:26:54.497Z,1.00
2023-03-10T17:29:21.972Z,0.93
2023-03-10T17:31:51.904Z,1.17
2023-03-10T17:34:20.387Z,0.67
2023-03-10T17:36:50.165Z,0.87
2023-03-10T17:39:19.322Z,1.17
2023-03-10T17:41:47.146Z,1.10
2023-03-10T17:44:14.685Z,1.40
2023-03-10T17:46:42.210Z,1.10
2023-03-10T17:49:12.013Z,0.97
2023-03-10T17:51:40.931Z,0.90
2023-03-10T17:54:08.353Z,1.07
2023-03-10T17:56:35.977Z,1.10
2023-03-10T17:59:03.370Z,0.80
2023-03-10T18:01:31.940Z,1.13
2023-03-10T18:04:00.221Z,1.23
2023-03-10T18:06:29.293Z,0.87
2023-03-10T18:08:56.843Z,1.20
2023-03-10T18:11:24.720Z,0.80
2023-03-10T18:13:52.488Z,1.20
2023-03-10T18:16:21.532Z,0.90
2023-03-10T18:18:49.036Z,1.30
2023-03-10T18:21:16.931Z,1.03
2023-03-10T18:23:44.782Z,1.03
2023-03-10T18:26:13.659Z,0.97
2023-03-10T18:28:41.228Z,0.77
2023-03-10T18:31:16.574Z,0.50
2023-03-10T18:33:44.012Z,0.80
2023-03-10T18:36:14.890Z,0.90
2023-03-10T18:38:42.442Z,0.60
2023-03-10T18:41:10.084Z,0.53
2023-03-10T18:43:37.670Z,0.80
2023-03-10T18:46:05.121Z,0.60
2023-03-10T18:48:32.532Z,0.90
2023-03-10T18:51:00.766Z,0.60
2023-03-10T18:53:28.527Z,0.57
2023-03-10T18:55:59.173Z,0.30
2023-03-10T18:58:26.816Z,0.33
2023-03-10T19:00:54.269Z,0.50
2023-03-10T19:03:21.712Z,0.20
2023-03-10T19:05:53.846Z,0.30
2023-03-10T19:08:22.421Z,0.30
2023-03-10T19:10:56.690Z,0.20
2023-03-10T19:13:24.616Z,0.10
2023-03-10T19:15:51.978Z,0.30
2023-03-10T19:18:19.615Z,0.30
2023-03-10T19:20:47.024Z,0.30
2023-03-10T19:23:15.048Z,0.10
2023-03-10T19:25:42.439Z,0.30
2023-03-10T19:28:09.982Z,0.20
2023-03-10T19:30:37.682Z,0.30
2023-03-10T19:33:05.061Z,0.27
2023-03-10T19:35:32.479Z,0.10
2023-03-10T19:38:00.525Z,0.10
2023-03-10T19:40:28.018Z,0.30
2023-03-10T19:42:55.404Z,0.20
2023-03-10T19:45:22.808Z,0.30
2023-03-10T19:47:52.441Z,0.30
2023-03-10T19:50:20.205Z,0.30
2023-03-10T19:52:48.806Z,0.20
2023-03-10T19:55:19.921Z,0.10
2023-03-10T19:57:51.012Z,0.10
2023-03-10T20:00:20.786Z,0.03
2023-03-10T20:02:48.467Z,0.00
2023-03-10T20:05:15.947Z,0.20
2023-03-10T20:07:46.463Z,0.10
2023-03-10T20:10:15.864Z,0.37
2023-03-10T20:12:43.508Z,0.10
2023-03-10T20:15:11.668Z,0.20
2023-03-10T20:17:39.297Z,0.20
2023-03-10T20:20:10.756Z,0.30
2023-03-10T20:22:39.574Z,0.10
2023-03-10T20:25:07.780Z,0.10
2023-03-10T20:27:35.326Z,0.10
2023-03-10T20:30:05.411Z,0.17
2023-03-10T20:32:32.904Z,0.00
2023-03-10T20:35:00.446Z,0.10
2023-03-10T20:37:27.892Z,0.10
2023-03-10T20:39:55.686Z,0.10
2023-03-10T20:42:22.980Z,0.10
2023-03-10T20:44:50.363Z,0.10
2023-03-10T20:47:17.822Z,0.13
2023-03-10T20:49:46.330Z,0.10
2023-03-10T20:52:13.688Z,0.10
2023-03-10T20:54:41.038Z,0.10
2023-03-10T20:57:08.774Z,0.20
2023-03-10T20:59:37.373Z,0.10
2023-03-10T21:02:05.739Z,0.10
2023-03-10T21:04:33.469Z,0.10
2023-03-10T21:07:00.958Z,0.10
2023-03-10T21:09:28.570Z,0.10
2023-03-10T21:11:56.084Z,0.10
2023-03-10T21:14:23.485Z,0.10
2023-03-10T21:16:50.920Z,0.10
2023-03-10T21:19:18.682Z,0.03
2023-03-10T21:21:45.964Z,0.10
2023-03-10T21:24:13.411Z,0.10
2023-03-10T21:26:40.847Z,0.10
2023-03-10T21:29:08.276Z,0.10
2023-03-10T21:31:35.689Z,0.10
2023-03-10T21:34:03.648Z,0.10
2023-03-10T21:36:31.754Z,0.10
2023-03-10T21:38:59.330Z,0.10
2023-03-10T21:41:28.155Z,0.10
2023-03-10T21:43:56.492Z,0.17
2023-03-10T21:46:24.177Z,0.00
2023-03-10T21:48:52.513Z,0.10
2023-03-10T21:51:21.066Z,0.10
2023-03-10T21:53:48.509Z,0.20
2023-03-10T21:56:19.952Z,0.10
2023-03-10T21:58:47.589Z,0.00
2023-03-10T22:01:16.033Z,0.10
2023-03-10T22:03:44.470Z,0.10
2023-03-10T22:06:11.982Z,0.10
2023-03-10T22:08:39.539Z,0.10
2023-03-10T22:11:07.634Z,0.00
2023-03-10T22:13:38.449Z,0.10
2023-03-10T22:16:06.841Z,0.10
2023-03-10T22:18:34.685Z,0.10
2023-03-10T22:21:02.064Z,0.10
2023-03-10T22:23:29.559Z,0.10
2023-03-10T22:25:57.000Z,0.10
2023-03-10T22:28:24.436Z,0.00
2023-03-10T22:30:51.853Z,0.00
2023-03-10T22:33:19.355Z,0.10
2023-03-10T22:35:52.159Z,0.00
2023-03-10T22:38:20.782Z,0.17
2023-03-10T22:40:48.261Z,0.10
2023-03-10T22:43:16.044Z,0.00
2023-03-10T22:45:43.474Z,0.10
2023-03-10T22:48:11.061Z,0.10
2023-03-10T22:50:40.739Z,0.03
2023-03-10T22:53:10.071Z,0.10
2023-03-10T22:55:37.571Z,0.10
2023-03-10T22:58:06.256Z,0.10
2023-03-10T23:00:34.170Z,0.10
2023-03-10T23:03:01.728Z,0.03
2023-03-10T23:05:29.414Z,0.10
2023-03-10T23:07:57.083Z,0.10
2023-03-10T23:10:26.973Z,0.10
2023-03-10T23:12:54.790Z,0.10
2023-03-10T23:15:27.433Z,0.20
2023-03-10T23:17:55.632Z,0.10
2023-03-10T23:20:29.335Z,0.10
2023-03-10T23:22:58.019Z,0.10
2023-03-10T23:25:47.253Z,0.17
2023-03-10T23:28:15.569Z,0.10
2023-03-10T23:30:44.066Z,0.30
2023-03-10T23:33:13.705Z,0.10
2023-03-10T23:35:41.235Z,0.13
2023-03-10T23:38:09.053Z,0.10
2023-03-10T23:40:37.213Z,0.10
2023-03-10T23:43:06.144Z,0.10
2023-03-10T23:45:33.858Z,0.10
2023-03-10T23:48:02.495Z,0.07
2023-03-10T23:50:31.094Z,0.20
2023-03-10T23:52:58.431Z,0.20
2023-03-10T23:55:27.611Z,0.10
2023-03-10T23:57:55.003Z,0.10
